Hlavní strana
METAR-TAF:

METAR-TAF

Letiště :

Banja Luka, Bosna a Hercegovina

zeměpisná šířka: 44-47N, zeměpisná délka: 017-13E, výška: 156 m

Aktuální stav počasí

Zpráva byla vytvořena před 38 minutami, v 06:30 UTC
Jihovýchodní vítr 4 kt, proměnlivý mezi východním a jihozápadním
Teplota 26°C
Vlhkost vzduchu 54%
Tlak 1017 hPa
Viditelnost 10 km a více
Žádná oblačnost pod 1500 m, nevyskytují se cumulonimby.

METAR: LQBK 190630Z 13004KT 080V230 CAVOK 26/16 Q1017 NOSIG

Čas: 09:08 (07:08 UTC)

Předpověď počasí

Zpráva byla vytvořena před 2 hodinami a 8 minutami, v 05:00 UTC
Předpověď platná od 19 v 06 UTC do 20 v 06 UTC
Jihojihovýchodní vítr 5 kt
Viditelnost 10 km a více
Žádná oblačnost pod 1500 m, nevyskytují se cumulonimby.
Pravděpodobnost 40% :
Dočasný
od 19 v 06 UTC do 19 v 17 UTC
Západojihozápadní vítr 10 kt

TAF: LQBK 190500Z 1906/2006 16005KT CAVOK TX36/1914Z TN18/2003Z PROB40 TEMPO 1906/1917 24010KT

Stav a předpovědi počasí z více než 4 000 letišť (zprávy METAR a TAF).

Červené a žluté tečky na mapě představují dostupné meteorologické stanice.

Když kurzor umístíte na tečku, zobrazí se název stanice.

Pak kliknutím zobrazíte stav a předpověď počasí.

Chcete-li změnit mapu, kliknutím na zelené tlačítko se znaménkem +mapu přiblížíte, kliknutím na zelené tlačítko se znaménkem – mapu oddálíte a kliknutím na zelené šipky přejdete na sousední mapy.


METAR-TAF: